Currently 64°F in Murrieta, California, USA
64°F
64°F / 52°F
calm
0.00"
Friday, November 24, 2017 8:30 AM PST

Murrieta, California Weather Summary
Last 36 Hours

Temperature Winds Hourly Humidity Dewpoint
Time Report Norm Report Norm Max Gusts Precip. Rpt. Norm Rpt. Norm Pressure
1,2Fri 08:30 AM  63.7°F  53°F  calm  1 mph  none  0.00"  54%  72%  46°F  44°F  30.02"
Fri 08:00 AM  58.1°F  50°F  calm  1 mph  2 mph  0.00"  64%  77%  45°F  43°F  30.01"
Fri 07:00 AM  52.3°F  46°F  calm  1 mph  3 mph  0.00"  71%  79%  43°F  40°F  29.99"
Fri 06:00 AM  52.3°F  46°F  calm  1 mph  none  0.00"  70%  78%  42°F  40°F  29.98"
3Fri 05:58 AM  52.2°F  46°F  calm  1 mph  none  ----  69%  78%  42°F  40°F  29.98"
Fri 05:00 AM  52.5°F  47°F  calm  1 mph  none  0.00"  69%  78%  42°F  40°F  29.97"
Fri 04:00 AM  55.2°F  48°F  calm  1 mph  5 mph  0.00"  62%  77%  42°F  40°F  29.98"
Fri 03:00 AM  56.5°F  48°F  calm  1 mph  4 mph  0.00"  59%  76%  42°F  41°F  29.98"
Fri 02:00 AM  57.3°F  49°F  calm  1 mph  2 mph  0.00"  57%  75%  42°F  41°F  29.99"
Fri 01:00 AM  58.9°F  50°F  calm  1 mph  5 mph  0.00"  56%  73%  43°F  41°F  29.99"
Fri 12:00 AM  60.0°F  50°F  calm  1 mph  5 mph  0.00"  52%  72%  42°F  41°F  30.01"
Thu 11:00 PM  62.0°F  51°F  calm  1 mph  7 mph  0.00"  48%  71%  41°F  42°F  30.03"
Thu 10:00 PM  63.2°F  52°F  calm  1 mph  none  0.00"  48%  70%  42°F  42°F  30.03"
Thu 09:00 PM  64.9°F  53°F  calm  1 mph  none  0.00"  45%  69%  42°F  43°F  30.02"
Thu 08:00 PM  67.2°F  55°F  calm  2 mph  4 mph  0.00"  40%  66%  41°F  43°F  30.01"
Thu 07:00 PM  70.5°F  56°F  calm  2 mph  10 mph  0.00"  35%  63%  40°F  44°F  30.00"
Thu 06:00 PM  74.8°F  59°F  1 mph SW  3 mph  11 mph  0.00"  30%  60%  40°F  44°F  29.98"
Thu 05:00 PM  80.4°F  62°F  2 mph SW  4 mph  7 mph  0.00"  25%  55%  40°F  45°F  29.97"
Thu 04:00 PM  82.9°F  65°F  calm  5 mph  4 mph  0.00"  21%  49%  38°F  45°F  29.96"
Thu 03:00 PM  91.8°F  70°F  2 mph NW  5 mph  8 mph  0.00"  14%  42%  34°F  44°F  29.97"
Thu 02:00 PM  92.4°F  71°F  1 mph NW  5 mph  8 mph  0.00"  13%  40%  33°F  44°F  29.99"
Thu 01:00 PM  91.5°F  70°F  4 mph NW  5 mph  8 mph  0.00"  14%  40%  33°F  44°F  30.02"
Thu 12:00 PM  89.7°F  69°F  calm  4 mph  7 mph  0.00"  15%  43%  35°F  45°F  30.04"
Thu 11:00 AM  86.5°F  67°F  3 mph W  3 mph  10 mph  0.00"  20%  47%  39°F  45°F  30.08"
Thu 10:00 AM  79.8°F  62°F  calm  2 mph  5 mph  0.00"  30%  57%  44°F  46°F  30.10"
Thu 09:00 AM  70.4°F  56°F  calm  2 mph  none  0.00"  43%  68%  46°F  45°F  30.12"
Thu 08:00 AM  60.1°F  51°F  calm  1 mph  none  0.00"  56%  77%  44°F  43°F  30.12"
Thu 07:00 AM  54.5°F  47°F  calm  1 mph  1 mph  0.00"  64%  80%  42°F  41°F  30.12"
Thu 06:00 AM  54.1°F  47°F  calm  1 mph  4 mph  0.00"  62%  79%  41°F  40°F  30.11"
Thu 05:00 AM  56.9°F  47°F  calm  1 mph  1 mph  0.00"  58%  78%  42°F  41°F  30.10"
Thu 04:00 AM  56.2°F  48°F  calm  1 mph  none  0.00"  58%  77%  41°F  41°F  30.11"
Thu 03:00 AM  57.1°F  49°F  calm  1 mph  none  0.00"  57%  76%  42°F  41°F  30.11"
Thu 02:00 AM  59.0°F  49°F  calm  1 mph  2 mph  0.00"  54%  75%  42°F  41°F  30.12"
Thu 01:00 AM  59.9°F  50°F  calm  1 mph  none  0.00"  52%  74%  42°F  42°F  30.11"
Thu 12:00 AM  60.3°F  51°F  calm  1 mph  3 mph  0.00"  50%  72%  41°F  42°F  30.12"
Wed 11:00 PM  65.1°F  52°F  calm  1 mph  4 mph  0.00"  43%  72%  41°F  42°F  30.13"
Wed 10:00 PM  64.4°F  53°F  calm  1 mph  none  0.00"  44%  70%  41°F  43°F  30.13"
Wed 09:00 PM  66.3°F  54°F  calm  1 mph  4 mph  0.00"  39%  69%  40°F  44°F  30.13"

  1. Current weather data. No green row appears if the current weather data is also the high or low for the current day.
  2. High temperature for the current day.
  3. Low temperature for the current day.

The Murrieta weather pages are a service of WeatherCurrents. Murrieta, California is located in the Temecula Valley, in southwestern Riverside County, at the junctions of the Interstate 15 and 215 highways.
Copyright ©Fri Nov 24 08:31:39 PST 2017  WeatherCurrents. All rights reserved. - Submit questions and comments - Privacy Policy

This page automatically refreshes every 10 minutes.